sensor_id;sensor_type;location;lat;lon;timestamp;temperature;humidity
27896;DHT22;15241;48.374;10.876;2022-12-07T00:00:17;4.50;99.90
27896;DHT22;15241;48.374;10.876;2022-12-07T00:05:16;4.40;99.90
27896;DHT22;15241;48.374;10.876;2022-12-07T00:10:15;4.40;99.90
27896;DHT22;15241;48.374;10.876;2022-12-07T00:15:15;4.40;99.90
27896;DHT22;15241;48.374;10.876;2022-12-07T00:20:14;4.40;99.90
27896;DHT22;15241;48.374;10.876;2022-12-07T00:25:13;4.40;99.90
27896;DHT22;15241;48.374;10.876;2022-12-07T00:30:13;4.50;99.90
27896;DHT22;15241;48.374;10.876;2022-12-07T00:35:12;4.50;99.90
27896;DHT22;15241;48.374;10.876;2022-12-07T00:40:13;4.40;99.90
27896;DHT22;15241;48.374;10.876;2022-12-07T00:45:12;4.40;99.90
27896;DHT22;15241;48.374;10.876;2022-12-07T00:50:11;4.40;99.90
27896;DHT22;15241;48.374;10.876;2022-12-07T00:55:10;4.40;99.90
27896;DHT22;15241;48.374;10.876;2022-12-07T01:00:10;4.40;99.90
27896;DHT22;15241;48.374;10.876;2022-12-07T01:05:10;4.40;99.90
27896;DHT22;15241;48.374;10.876;2022-12-07T01:10:10;4.40;99.90
27896;DHT22;15241;48.374;10.876;2022-12-07T01:15:11;4.40;99.90
27896;DHT22;15241;48.374;10.876;2022-12-07T01:20:12;4.30;99.90
27896;DHT22;15241;48.374;10.876;2022-12-07T01:25:12;4.30;99.90
27896;DHT22;15241;48.374;10.876;2022-12-07T01:30:13;4.40;99.90
27896;DHT22;15241;48.374;10.876;2022-12-07T01:35:12;4.30;99.90
27896;DHT22;15241;48.374;10.876;2022-12-07T01:40:12;4.20;99.90
27896;DHT22;15241;48.374;10.876;2022-12-07T01:45:39;4.30;99.90
27896;DHT22;15241;48.374;10.876;2022-12-07T01:50:39;4.30;99.90
27896;DHT22;15241;48.374;10.876;2022-12-07T01:55:41;4.30;99.90
27896;DHT22;15241;48.374;10.876;2022-12-07T02:00:42;4.30;99.90
27896;DHT22;15241;48.374;10.876;2022-12-07T02:05:42;4.20;99.90
27896;DHT22;15241;48.374;10.876;2022-12-07T02:10:41;4.30;99.90
27896;DHT22;15241;48.374;10.876;2022-12-07T02:15:47;4.20;99.90
27896;DHT22;15241;48.374;10.876;2022-12-07T02:20:49;4.20;99.90
27896;DHT22;15241;48.374;10.876;2022-12-07T02:36:51;4.30;99.90
27896;DHT22;15241;48.374;10.876;2022-12-07T02:47:02;4.20;99.90
27896;DHT22;15241;48.374;10.876;2022-12-07T02:52:02;4.20;99.90
27896;DHT22;15241;48.374;10.876;2022-12-07T02:57:14;4.20;99.90
27896;DHT22;15241;48.374;10.876;2022-12-07T03:02:17;4.20;99.90
27896;DHT22;15241;48.374;10.876;2022-12-07T03:07:21;4.20;99.90
27896;DHT22;15241;48.374;10.876;2022-12-07T03:12:21;4.20;99.90
27896;DHT22;15241;48.374;10.876;2022-12-07T03:17:24;4.20;99.90
27896;DHT22;15241;48.374;10.876;2022-12-07T03:22:24;4.20;99.90
27896;DHT22;15241;48.374;10.876;2022-12-07T03:27:26;4.20;99.90
27896;DHT22;15241;48.374;10.876;2022-12-07T03:32:27;4.20;99.90
27896;DHT22;15241;48.374;10.876;2022-12-07T03:37:31;4.20;99.90
27896;DHT22;15241;48.374;10.876;2022-12-07T03:42:31;4.20;99.90
27896;DHT22;15241;48.374;10.876;2022-12-07T03:47:33;4.10;99.90
27896;DHT22;15241;48.374;10.876;2022-12-07T03:52:36;4.20;99.90
27896;DHT22;15241;48.374;10.876;2022-12-07T03:57:36;4.20;99.90
27896;DHT22;15241;48.374;10.876;2022-12-07T04:02:37;4.10;99.90
27896;DHT22;15241;48.374;10.876;2022-12-07T04:07:36;4.20;99.90
27896;DHT22;15241;48.374;10.876;2022-12-07T04:12:35;4.10;99.90
27896;DHT22;15241;48.374;10.876;2022-12-07T04:17:35;4.00;99.90
27896;DHT22;15241;48.374;10.876;2022-12-07T04:22:34;4.00;99.90
27896;DHT22;15241;48.374;10.876;2022-12-07T04:27:33;4.00;99.90
27896;DHT22;15241;48.374;10.876;2022-12-07T04:32:33;4.00;99.90
27896;DHT22;15241;48.374;10.876;2022-12-07T04:37:33;4.00;99.90
27896;DHT22;15241;48.374;10.876;2022-12-07T04:42:32;3.90;99.90
27896;DHT22;15241;48.374;10.876;2022-12-07T04:47:31;3.90;99.90
27896;DHT22;15241;48.374;10.876;2022-12-07T04:52:29;3.90;99.90
27896;DHT22;15241;48.374;10.876;2022-12-07T04:57:28;3.90;99.90
27896;DHT22;15241;48.374;10.876;2022-12-07T05:02:27;3.90;99.90
27896;DHT22;15241;48.374;10.876;2022-12-07T05:07:26;3.90;99.90
27896;DHT22;15241;48.374;10.876;2022-12-07T05:12:25;4.00;99.90
27896;DHT22;15241;48.374;10.876;2022-12-07T05:17:24;4.00;99.90
27896;DHT22;15241;48.374;10.876;2022-12-07T05:22:23;4.00;99.90
27896;DHT22;15241;48.374;10.876;2022-12-07T05:27:22;4.00;99.90
27896;DHT22;15241;48.374;10.876;2022-12-07T05:32:21;4.00;99.90
27896;DHT22;15241;48.374;10.876;2022-12-07T05:37:20;4.00;99.90
27896;DHT22;15241;48.374;10.876;2022-12-07T05:42:19;4.00;99.90
27896;DHT22;15241;48.374;10.876;2022-12-07T05:47:18;3.80;99.90
27896;DHT22;15241;48.374;10.876;2022-12-07T05:52:17;3.70;99.90
27896;DHT22;15241;48.374;10.876;2022-12-07T05:57:15;3.60;99.90
27896;DHT22;15241;48.374;10.876;2022-12-07T06:02:16;3.70;99.90
27896;DHT22;15241;48.374;10.876;2022-12-07T06:07:16;3.70;99.90
27896;DHT22;15241;48.374;10.876;2022-12-07T06:12:15;3.60;99.90
27896;DHT22;15241;48.374;10.876;2022-12-07T06:17:14;3.60;99.90
27896;DHT22;15241;48.374;10.876;2022-12-07T06:22:14;3.50;99.90
27896;DHT22;15241;48.374;10.876;2022-12-07T06:27:13;3.60;99.90
27896;DHT22;15241;48.374;10.876;2022-12-07T06:32:12;3.50;99.90
27896;DHT22;15241;48.374;10.876;2022-12-07T06:37:11;3.50;99.90
27896;DHT22;15241;48.374;10.876;2022-12-07T06:42:09;3.50;99.90
27896;DHT22;15241;48.374;10.876;2022-12-07T06:52:14;3.60;99.90
27896;DHT22;15241;48.374;10.876;2022-12-07T06:57:13;3.40;99.90
27896;DHT22;15241;48.374;10.876;2022-12-07T07:02:12;3.40;99.90
27896;DHT22;15241;48.374;10.876;2022-12-07T07:07:11;3.40;99.90
27896;DHT22;15241;48.374;10.876;2022-12-07T07:12:10;3.30;99.90
27896;DHT22;15241;48.374;10.876;2022-12-07T07:17:09;3.40;99.90
27896;DHT22;15241;48.374;10.876;2022-12-07T07:22:08;3.50;99.90
27896;DHT22;15241;48.374;10.876;2022-12-07T07:27:07;3.50;99.90
27896;DHT22;15241;48.374;10.876;2022-12-07T07:32:06;3.50;99.90
27896;DHT22;15241;48.374;10.876;2022-12-07T07:37:05;3.50;99.90
27896;DHT22;15241;48.374;10.876;2022-12-07T07:42:05;3.40;99.90
27896;DHT22;15241;48.374;10.876;2022-12-07T07:47:04;3.30;99.90
27896;DHT22;15241;48.374;10.876;2022-12-07T07:52:05;3.20;99.90
27896;DHT22;15241;48.374;10.876;2022-12-07T07:57:04;3.30;99.90
27896;DHT22;15241;48.374;10.876;2022-12-07T08:02:03;3.30;99.90
27896;DHT22;15241;48.374;10.876;2022-12-07T08:07:02;3.20;99.90
27896;DHT22;15241;48.374;10.876;2022-12-07T08:12:01;3.30;99.90
27896;DHT22;15241;48.374;10.876;2022-12-07T08:17:00;3.30;99.90
27896;DHT22;15241;48.374;10.876;2022-12-07T08:21:59;3.30;99.90
27896;DHT22;15241;48.374;10.876;2022-12-07T08:26:58;3.20;99.90
27896;DHT22;15241;48.374;10.876;2022-12-07T08:31:57;3.30;99.90
27896;DHT22;15241;48.374;10.876;2022-12-07T08:36:56;3.40;99.90
27896;DHT22;15241;48.374;10.876;2022-12-07T08:41:55;3.50;99.90
27896;DHT22;15241;48.374;10.876;2022-12-07T08:46:56;3.50;99.90
27896;DHT22;15241;48.374;10.876;2022-12-07T08:51:56;3.70;99.90
27896;DHT22;15241;48.374;10.876;2022-12-07T08:56:56;3.70;99.90
27896;DHT22;15241;48.374;10.876;2022-12-07T09:01:55;3.70;99.90
27896;DHT22;15241;48.374;10.876;2022-12-07T09:06:54;3.80;99.90
27896;DHT22;15241;48.374;10.876;2022-12-07T09:11:53;4.00;99.90
27896;DHT22;15241;48.374;10.876;2022-12-07T09:16:52;4.10;99.90
27896;DHT22;15241;48.374;10.876;2022-12-07T09:21:51;4.30;99.90
27896;DHT22;15241;48.374;10.876;2022-12-07T09:26:50;4.40;99.90
27896;DHT22;15241;48.374;10.876;2022-12-07T09:31:49;4.50;99.90
27896;DHT22;15241;48.374;10.876;2022-12-07T09:36:48;4.50;99.90
27896;DHT22;15241;48.374;10.876;2022-12-07T09:41:47;4.80;99.90
27896;DHT22;15241;48.374;10.876;2022-12-07T09:46:46;4.90;99.90
27896;DHT22;15241;48.374;10.876;2022-12-07T09:51:46;5.30;99.90
27896;DHT22;15241;48.374;10.876;2022-12-07T09:56:45;5.70;99.90
27896;DHT22;15241;48.374;10.876;2022-12-07T10:01:47;6.10;99.90
27896;DHT22;15241;48.374;10.876;2022-12-07T10:06:45;6.70;99.90
27896;DHT22;15241;48.374;10.876;2022-12-07T10:17:30;7.20;99.90
27896;DHT22;15241;48.374;10.876;2022-12-07T10:22:30;7.90;99.90
27896;DHT22;15241;48.374;10.876;2022-12-07T10:27:31;8.00;99.90
27896;DHT22;15241;48.374;10.876;2022-12-07T10:32:33;7.80;99.90
27896;DHT22;15241;48.374;10.876;2022-12-07T10:37:34;7.80;99.90
27896;DHT22;15241;48.374;10.876;2022-12-07T10:42:34;8.40;99.90
27896;DHT22;15241;48.374;10.876;2022-12-07T10:47:36;8.60;99.90
27896;DHT22;15241;48.374;10.876;2022-12-07T10:52:58;8.90;99.90
27896;DHT22;15241;48.374;10.876;2022-12-07T11:03:37;9.00;99.90
27896;DHT22;15241;48.374;10.876;2022-12-07T11:14:00;8.80;99.90
27896;DHT22;15241;48.374;10.876;2022-12-07T11:19:16;8.60;99.90
27896;DHT22;15241;48.374;10.876;2022-12-07T11:24:17;8.40;99.90
27896;DHT22;15241;48.374;10.876;2022-12-07T11:29:28;8.30;99.90
27896;DHT22;15241;48.374;10.876;2022-12-07T11:34:31;8.20;99.90
27896;DHT22;15241;48.374;10.876;2022-12-07T11:39:33;8.10;99.90
27896;DHT22;15241;48.374;10.876;2022-12-07T11:44:37;8.10;99.90
27896;DHT22;15241;48.374;10.876;2022-12-07T11:49:41;8.00;99.90
27896;DHT22;15241;48.374;10.876;2022-12-07T11:54:43;7.80;99.90
27896;DHT22;15241;48.374;10.876;2022-12-07T11:59:45;7.80;99.90
27896;DHT22;15241;48.374;10.876;2022-12-07T12:09:59;7.40;99.90
27896;DHT22;15241;48.374;10.876;2022-12-07T12:15:07;7.20;99.90
27896;DHT22;15241;48.374;10.876;2022-12-07T12:20:26;7.40;99.90
27896;DHT22;15241;48.374;10.876;2022-12-07T12:25:27;7.50;99.90
27896;DHT22;15241;48.374;10.876;2022-12-07T12:30:31;7.40;99.90
27896;DHT22;15241;48.374;10.876;2022-12-07T12:35:33;7.50;99.90
27896;DHT22;15241;48.374;10.876;2022-12-07T12:40:43;7.50;99.90
27896;DHT22;15241;48.374;10.876;2022-12-07T12:45:42;7.40;99.90
27896;DHT22;15241;48.374;10.876;2022-12-07T12:50:41;7.30;99.90
27896;DHT22;15241;48.374;10.876;2022-12-07T13:01:40;7.20;99.90
27896;DHT22;15241;48.374;10.876;2022-12-07T13:06:40;7.20;99.90
27896;DHT22;15241;48.374;10.876;2022-12-07T13:16:49;7.10;99.90
27896;DHT22;15241;48.374;10.876;2022-12-07T13:21:48;7.00;99.90
27896;DHT22;15241;48.374;10.876;2022-12-07T13:26:47;6.90;99.90
27896;DHT22;15241;48.374;10.876;2022-12-07T13:31:47;6.80;99.90
27896;DHT22;15241;48.374;10.876;2022-12-07T13:36:47;6.80;99.90
27896;DHT22;15241;48.374;10.876;2022-12-07T13:42:12;6.60;99.90
27896;DHT22;15241;48.374;10.876;2022-12-07T13:52:18;6.50;99.90
27896;DHT22;15241;48.374;10.876;2022-12-07T13:57:18;6.50;99.90
27896;DHT22;15241;48.374;10.876;2022-12-07T14:02:22;6.50;99.90
27896;DHT22;15241;48.374;10.876;2022-12-07T14:07:24;6.50;99.90
27896;DHT22;15241;48.374;10.876;2022-12-07T14:12:25;6.60;99.90
27896;DHT22;15241;48.374;10.876;2022-12-07T14:17:26;6.70;99.90
27896;DHT22;15241;48.374;10.876;2022-12-07T14:22:35;6.80;99.90
27896;DHT22;15241;48.374;10.876;2022-12-07T14:27:35;6.70;99.90
27896;DHT22;15241;48.374;10.876;2022-12-07T14:32:35;6.80;99.90
27896;DHT22;15241;48.374;10.876;2022-12-07T14:37:35;8.40;99.90
27896;DHT22;15241;48.374;10.876;2022-12-07T14:42:36;9.20;99.90
27896;DHT22;15241;48.374;10.876;2022-12-07T14:47:35;8.70;99.90
27896;DHT22;15241;48.374;10.876;2022-12-07T14:52:34;8.30;99.90
27896;DHT22;15241;48.374;10.876;2022-12-07T14:57:33;8.20;99.90
27896;DHT22;15241;48.374;10.876;2022-12-07T15:02:31;7.90;99.90
27896;DHT22;15241;48.374;10.876;2022-12-07T15:07:30;7.70;99.90
27896;DHT22;15241;48.374;10.876;2022-12-07T15:12:29;7.50;99.90
27896;DHT22;15241;48.374;10.876;2022-12-07T15:17:28;7.20;99.90
27896;DHT22;15241;48.374;10.876;2022-12-07T15:22:27;7.00;99.90
27896;DHT22;15241;48.374;10.876;2022-12-07T15:27:26;6.80;99.90
27896;DHT22;15241;48.374;10.876;2022-12-07T15:32:25;6.60;99.90
27896;DHT22;15241;48.374;10.876;2022-12-07T15:37:24;6.50;99.90
27896;DHT22;15241;48.374;10.876;2022-12-07T15:42:23;6.30;99.90
27896;DHT22;15241;48.374;10.876;2022-12-07T15:47:22;6.20;99.90
27896;DHT22;15241;48.374;10.876;2022-12-07T15:52:22;5.90;99.90
27896;DHT22;15241;48.374;10.876;2022-12-07T15:57:21;5.90;99.90
27896;DHT22;15241;48.374;10.876;2022-12-07T16:02:20;5.80;99.90
27896;DHT22;15241;48.374;10.876;2022-12-07T16:07:19;5.60;99.90
27896;DHT22;15241;48.374;10.876;2022-12-07T16:12:18;5.50;99.90
27896;DHT22;15241;48.374;10.876;2022-12-07T16:17:17;5.50;99.90
27896;DHT22;15241;48.374;10.876;2022-12-07T16:22:15;5.30;99.90
27896;DHT22;15241;48.374;10.876;2022-12-07T16:27:14;5.30;99.90
27896;DHT22;15241;48.374;10.876;2022-12-07T16:32:13;5.20;99.90
27896;DHT22;15241;48.374;10.876;2022-12-07T16:37:12;5.10;99.90
27896;DHT22;15241;48.374;10.876;2022-12-07T16:42:11;5.10;99.90
27896;DHT22;15241;48.374;10.876;2022-12-07T16:47:10;5.00;99.90
27896;DHT22;15241;48.374;10.876;2022-12-07T16:52:09;4.90;99.90
27896;DHT22;15241;48.374;10.876;2022-12-07T16:57:08;4.80;99.90
27896;DHT22;15241;48.374;10.876;2022-12-07T17:02:08;4.70;99.90
27896;DHT22;15241;48.374;10.876;2022-12-07T17:07:07;4.70;99.90
27896;DHT22;15241;48.374;10.876;2022-12-07T17:12:06;4.60;99.90
27896;DHT22;15241;48.374;10.876;2022-12-07T17:17:05;4.50;99.90
27896;DHT22;15241;48.374;10.876;2022-12-07T17:22:04;4.40;99.90
27896;DHT22;15241;48.374;10.876;2022-12-07T17:27:04;4.30;99.90
27896;DHT22;15241;48.374;10.876;2022-12-07T17:32:03;4.10;99.90
27896;DHT22;15241;48.374;10.876;2022-12-07T17:37:02;4.10;99.90
27896;DHT22;15241;48.374;10.876;2022-12-07T17:42:01;4.00;99.90
27896;DHT22;15241;48.374;10.876;2022-12-07T17:47:00;3.90;99.90
27896;DHT22;15241;48.374;10.876;2022-12-07T17:51:59;3.80;99.90
27896;DHT22;15241;48.374;10.876;2022-12-07T17:56:58;3.70;99.90
27896;DHT22;15241;48.374;10.876;2022-12-07T18:01:57;3.60;99.90
27896;DHT22;15241;48.374;10.876;2022-12-07T18:06:56;3.50;99.90
27896;DHT22;15241;48.374;10.876;2022-12-07T18:11:55;3.40;99.90
27896;DHT22;15241;48.374;10.876;2022-12-07T18:16:54;3.30;99.90
27896;DHT22;15241;48.374;10.876;2022-12-07T18:21:52;3.20;99.90
27896;DHT22;15241;48.374;10.876;2022-12-07T18:26:51;3.20;99.90
27896;DHT22;15241;48.374;10.876;2022-12-07T18:31:50;3.30;99.90
27896;DHT22;15241;48.374;10.876;2022-12-07T18:36:49;3.50;99.90
27896;DHT22;15241;48.374;10.876;2022-12-07T18:41:48;3.50;99.90
27896;DHT22;15241;48.374;10.876;2022-12-07T18:46:47;3.60;99.90
27896;DHT22;15241;48.374;10.876;2022-12-07T18:51:46;3.40;99.90
27896;DHT22;15241;48.374;10.876;2022-12-07T18:56:45;3.30;99.90
27896;DHT22;15241;48.374;10.876;2022-12-07T19:01:46;3.20;99.90
27896;DHT22;15241;48.374;10.876;2022-12-07T19:06:46;3.20;99.90
27896;DHT22;15241;48.374;10.876;2022-12-07T19:11:46;3.10;99.90
27896;DHT22;15241;48.374;10.876;2022-12-07T19:16:46;3.00;99.90
27896;DHT22;15241;48.374;10.876;2022-12-07T19:21:45;3.00;99.90
27896;DHT22;15241;48.374;10.876;2022-12-07T19:26:44;3.00;99.90
27896;DHT22;15241;48.374;10.876;2022-12-07T19:31:43;3.00;99.90
27896;DHT22;15241;48.374;10.876;2022-12-07T19:36:42;3.10;99.90
27896;DHT22;15241;48.374;10.876;2022-12-07T19:41:43;3.10;99.90
27896;DHT22;15241;48.374;10.876;2022-12-07T19:46:46;3.10;99.90
27896;DHT22;15241;48.374;10.876;2022-12-07T19:51:45;3.00;99.90
27896;DHT22;15241;48.374;10.876;2022-12-07T19:56:45;3.00;99.90
27896;DHT22;15241;48.374;10.876;2022-12-07T20:01:44;2.90;99.90
27896;DHT22;15241;48.374;10.876;2022-12-07T20:06:44;2.90;99.90
27896;DHT22;15241;48.374;10.876;2022-12-07T20:11:43;2.90;99.90
27896;DHT22;15241;48.374;10.876;2022-12-07T20:16:42;2.90;99.90
27896;DHT22;15241;48.374;10.876;2022-12-07T20:21:42;3.00;99.90
27896;DHT22;15241;48.374;10.876;2022-12-07T20:26:42;3.00;99.90
27896;DHT22;15241;48.374;10.876;2022-12-07T20:31:41;3.00;99.90
27896;DHT22;15241;48.374;10.876;2022-12-07T20:36:41;3.10;99.90
27896;DHT22;15241;48.374;10.876;2022-12-07T20:41:40;3.10;99.90
27896;DHT22;15241;48.374;10.876;2022-12-07T20:46:39;3.20;99.90
27896;DHT22;15241;48.374;10.876;2022-12-07T20:51:38;3.20;99.90
27896;DHT22;15241;48.374;10.876;2022-12-07T20:56:37;3.30;99.90
27896;DHT22;15241;48.374;10.876;2022-12-07T21:01:36;3.30;99.90
27896;DHT22;15241;48.374;10.876;2022-12-07T21:06:35;3.30;99.90
27896;DHT22;15241;48.374;10.876;2022-12-07T21:11:34;3.30;99.90
27896;DHT22;15241;48.374;10.876;2022-12-07T21:16:33;3.40;99.90
27896;DHT22;15241;48.374;10.876;2022-12-07T21:21:33;3.40;99.90
27896;DHT22;15241;48.374;10.876;2022-12-07T21:26:33;3.40;99.90
27896;DHT22;15241;48.374;10.876;2022-12-07T21:31:33;3.30;99.90
27896;DHT22;15241;48.374;10.876;2022-12-07T21:36:32;3.30;99.90
27896;DHT22;15241;48.374;10.876;2022-12-07T21:41:33;3.40;99.90
27896;DHT22;15241;48.374;10.876;2022-12-07T21:46:32;3.40;99.90
27896;DHT22;15241;48.374;10.876;2022-12-07T21:51:31;3.50;99.90
27896;DHT22;15241;48.374;10.876;2022-12-07T21:56:32;3.50;99.90
27896;DHT22;15241;48.374;10.876;2022-12-07T22:01:34;3.40;99.90
27896;DHT22;15241;48.374;10.876;2022-12-07T22:06:34;3.40;99.90
27896;DHT22;15241;48.374;10.876;2022-12-07T22:11:33;3.50;99.90
27896;DHT22;15241;48.374;10.876;2022-12-07T22:16:33;3.50;99.90
27896;DHT22;15241;48.374;10.876;2022-12-07T22:21:32;3.50;99.90
27896;DHT22;15241;48.374;10.876;2022-12-07T22:26:31;3.40;99.90
27896;DHT22;15241;48.374;10.876;2022-12-07T22:31:30;3.40;99.90
27896;DHT22;15241;48.374;10.876;2022-12-07T22:36:29;3.50;99.90
27896;DHT22;15241;48.374;10.876;2022-12-07T22:41:30;3.40;99.90
27896;DHT22;15241;48.374;10.876;2022-12-07T22:46:29;3.40;99.90
27896;DHT22;15241;48.374;10.876;2022-12-07T22:51:30;3.40;99.90
27896;DHT22;15241;48.374;10.876;2022-12-07T22:56:32;3.40;99.90
27896;DHT22;15241;48.374;10.876;2022-12-07T23:01:31;3.20;99.90
27896;DHT22;15241;48.374;10.876;2022-12-07T23:06:31;3.10;99.90
27896;DHT22;15241;48.374;10.876;2022-12-07T23:11:32;3.10;99.90
27896;DHT22;15241;48.374;10.876;2022-12-07T23:16:32;3.20;99.90
27896;DHT22;15241;48.374;10.876;2022-12-07T23:21:31;3.00;99.90
27896;DHT22;15241;48.374;10.876;2022-12-07T23:26:30;2.80;99.90
27896;DHT22;15241;48.374;10.876;2022-12-07T23:31:29;3.00;99.90
27896;DHT22;15241;48.374;10.876;2022-12-07T23:36:28;3.10;99.90
27896;DHT22;15241;48.374;10.876;2022-12-07T23:41:28;3.00;99.90
27896;DHT22;15241;48.374;10.876;2022-12-07T23:46:29;3.00;99.90
27896;DHT22;15241;48.374;10.876;2022-12-07T23:51:28;3.10;99.90
27896;DHT22;15241;48.374;10.876;2022-12-07T23:56:28;3.20;99.90
